sensor_id;sensor_type;location;lat;lon;timestamp;pressure;altitude;pressure_sealevel;temperature;humidity
818;BME280;391;51.052;6.954;2023-04-05T00:00:05;101689.44;;;6.30;54.26
818;BME280;391;51.052;6.954;2023-04-05T00:02:15;101677.81;;;6.24;54.34
818;BME280;391;51.052;6.954;2023-04-05T00:04:19;101679.59;;;6.25;54.14
818;BME280;391;51.052;6.954;2023-04-05T00:06:26;101670.63;;;6.20;54.19
818;BME280;391;51.052;6.954;2023-04-05T00:08:30;101683.66;;;6.34;54.31
818;BME280;391;51.052;6.954;2023-04-05T00:10:34;101685.22;;;6.32;54.30
818;BME280;391;51.052;6.954;2023-04-05T00:12:38;101682.88;;;6.22;54.55
818;BME280;391;51.052;6.954;2023-04-05T00:14:42;101675.09;;;6.22;54.53
818;BME280;391;51.052;6.954;2023-04-05T00:16:45;101655.81;;;6.17;54.34
818;BME280;391;51.052;6.954;2023-04-05T00:18:51;101631.84;;;6.07;54.04
818;BME280;391;51.052;6.954;2023-04-05T00:20:55;101667.28;;;6.35;54.72
818;BME280;391;51.052;6.954;2023-04-05T00:22:58;101676.25;;;6.41;54.40
818;BME280;391;51.052;6.954;2023-04-05T00:25:02;101672.63;;;6.38;54.55
818;BME280;391;51.052;6.954;2023-04-05T00:27:06;101665.59;;;6.36;54.78
818;BME280;391;51.052;6.954;2023-04-05T00:29:09;101673.09;;;6.31;54.94
818;BME280;391;51.052;6.954;2023-04-05T00:31:13;101668.59;;;6.29;54.67
818;BME280;391;51.052;6.954;2023-04-05T00:33:16;101671.19;;;6.29;55.15
818;BME280;391;51.052;6.954;2023-04-05T00:35:21;101668.59;;;6.29;55.15
818;BME280;391;51.052;6.954;2023-04-05T00:37:24;101668.59;;;6.29;55.47
818;BME280;391;51.052;6.954;2023-04-05T00:39:28;101668.00;;;6.33;55.21
818;BME280;391;51.052;6.954;2023-04-05T00:41:31;101676.97;;;6.38;55.11
818;BME280;391;51.052;6.954;2023-04-05T00:43:34;101662.41;;;6.40;54.96
818;BME280;391;51.052;6.954;2023-04-05T00:45:38;101663.00;;;6.36;54.70
818;BME280;391;51.052;6.954;2023-04-05T00:47:42;101662.34;;;6.25;55.25
818;BME280;391;51.052;6.954;2023-04-05T00:49:45;101670.31;;;6.28;55.39
818;BME280;391;51.052;6.954;2023-04-05T00:51:50;101661.13;;;6.33;55.07
818;BME280;391;51.052;6.954;2023-04-05T00:53:54;101595.44;;;6.04;55.40
818;BME280;391;51.052;6.954;2023-04-05T00:55:59;101666.84;;;6.43;55.18
818;BME280;391;51.052;6.954;2023-04-05T00:58:03;101665.69;;;6.37;55.04
818;BME280;391;51.052;6.954;2023-04-05T01:00:08;101648.97;;;6.32;55.62
818;BME280;391;51.052;6.954;2023-04-05T01:02:17;101653.78;;;6.26;55.53
818;BME280;391;51.052;6.954;2023-04-05T01:04:29;101647.19;;;6.04;55.74
818;BME280;391;51.052;6.954;2023-04-05T01:06:42;101647.25;;;5.91;56.05
818;BME280;391;51.052;6.954;2023-04-05T01:08:56;101646.38;;;5.90;56.69
818;BME280;391;51.052;6.954;2023-04-05T01:11:03;101614.88;;;5.84;56.53
818;BME280;391;51.052;6.954;2023-04-05T01:13:07;101643.13;;;6.07;56.37
818;BME280;391;51.052;6.954;2023-04-05T01:15:11;101649.56;;;6.14;56.16
818;BME280;391;51.052;6.954;2023-04-05T01:17:15;101648.06;;;6.17;56.16
818;BME280;391;51.052;6.954;2023-04-05T01:19:26;101650.75;;;6.19;56.74
818;BME280;391;51.052;6.954;2023-04-05T01:21:51;101650.81;;;6.20;56.45
818;BME280;391;51.052;6.954;2023-04-05T01:24:05;101650.81;;;6.20;56.88
818;BME280;391;51.052;6.954;2023-04-05T01:26:32;101645.66;;;6.20;57.15
818;BME280;391;51.052;6.954;2023-04-05T01:28:58;101614.03;;;6.11;56.85
818;BME280;391;51.052;6.954;2023-04-05T01:31:17;101643.06;;;6.35;57.23
818;BME280;391;51.052;6.954;2023-04-05T01:33:25;101652.75;;;6.37;56.71
818;BME280;391;51.052;6.954;2023-04-05T01:35:38;101604.34;;;6.22;57.00
818;BME280;391;51.052;6.954;2023-04-05T01:37:44;101623.44;;;6.38;56.84
818;BME280;391;51.052;6.954;2023-04-05T01:39:50;101624.94;;;6.35;56.75
818;BME280;391;51.052;6.954;2023-04-05T01:41:57;101633.63;;;6.35;57.35
818;BME280;391;51.052;6.954;2023-04-05T01:44:01;101637.03;;;6.34;57.34
818;BME280;391;51.052;6.954;2023-04-05T01:46:04;101624.69;;;6.30;57.15
818;BME280;391;51.052;6.954;2023-04-05T01:48:10;101629.34;;;6.36;56.96
818;BME280;391;51.052;6.954;2023-04-05T01:50:13;101628.44;;;6.35;56.91
818;BME280;391;51.052;6.954;2023-04-05T01:52:17;101630.66;;;6.29;57.16
818;BME280;391;51.052;6.954;2023-04-05T01:54:20;101630.41;;;6.25;56.80
818;BME280;391;51.052;6.954;2023-04-05T01:56:23;101619.47;;;6.16;56.72
818;BME280;391;51.052;6.954;2023-04-05T01:58:27;101629.22;;;6.20;56.87
818;BME280;391;51.052;6.954;2023-04-05T02:00:31;101627.53;;;6.20;56.92
818;BME280;391;51.052;6.954;2023-04-05T02:02:34;101625.47;;;6.15;57.09
818;BME280;391;51.052;6.954;2023-04-05T02:04:39;101615.53;;;6.08;56.77
818;BME280;391;51.052;6.954;2023-04-05T02:06:44;101621.63;;;6.08;57.26
818;BME280;391;51.052;6.954;2023-04-05T02:08:47;101625.78;;;6.06;57.17
818;BME280;391;51.052;6.954;2023-04-05T02:10:51;101622.50;;;6.09;57.37
818;BME280;391;51.052;6.954;2023-04-05T02:12:55;101618.47;;;5.99;57.20
818;BME280;391;51.052;6.954;2023-04-05T02:15:00;101624.72;;;6.03;57.12
818;BME280;391;51.052;6.954;2023-04-05T02:17:03;101621.31;;;6.04;57.39
818;BME280;391;51.052;6.954;2023-04-05T02:19:07;101617.66;;;6.00;57.12
818;BME280;391;51.052;6.954;2023-04-05T02:21:12;101617.84;;;6.03;57.14
818;BME280;391;51.052;6.954;2023-04-05T02:23:18;101615.06;;;6.00;57.00
818;BME280;391;51.052;6.954;2023-04-05T02:25:22;101613.78;;;5.94;57.12
818;BME280;391;51.052;6.954;2023-04-05T02:27:25;101615.94;;;5.86;57.52
818;BME280;391;51.052;6.954;2023-04-05T02:29:29;101612.44;;;5.85;58.24
818;BME280;391;51.052;6.954;2023-04-05T02:31:32;101604.16;;;5.78;57.66
818;BME280;391;51.052;6.954;2023-04-05T02:33:37;101615.22;;;5.75;57.84
818;BME280;391;51.052;6.954;2023-04-05T02:35:41;101585.72;;;5.59;58.80
818;BME280;391;51.052;6.954;2023-04-05T02:37:46;101583.13;;;5.59;58.77
818;BME280;391;51.052;6.954;2023-04-05T02:39:50;101606.66;;;5.76;59.15
818;BME280;391;51.052;6.954;2023-04-05T02:41:53;101600.72;;;5.77;58.58
818;BME280;391;51.052;6.954;2023-04-05T02:43:57;101598.97;;;5.78;59.35
818;BME280;391;51.052;6.954;2023-04-05T02:46:04;101610.16;;;5.90;58.67
818;BME280;391;51.052;6.954;2023-04-05T02:48:13;101610.59;;;5.84;58.79
818;BME280;391;51.052;6.954;2023-04-05T02:50:17;101435.50;;;4.86;59.35
818;BME280;391;51.052;6.954;2023-04-05T02:52:22;101608.72;;;5.82;59.04
818;BME280;391;51.052;6.954;2023-04-05T02:54:27;101613.84;;;5.80;59.36
818;BME280;391;51.052;6.954;2023-04-05T02:56:34;101606.75;;;5.78;59.00
818;BME280;391;51.052;6.954;2023-04-05T02:58:44;101545.28;;;5.46;59.52
818;BME280;391;51.052;6.954;2023-04-05T03:00:53;101604.88;;;5.75;59.58
818;BME280;391;51.052;6.954;2023-04-05T03:03:04;101612.81;;;5.78;59.66
818;BME280;391;51.052;6.954;2023-04-05T03:05:12;101611.13;;;5.79;59.41
818;BME280;391;51.052;6.954;2023-04-05T03:07:23;101604.34;;;5.81;59.14
818;BME280;391;51.052;6.954;2023-04-05T03:09:29;101592.72;;;5.74;59.79
818;BME280;391;51.052;6.954;2023-04-05T03:11:39;101607.75;;;5.80;59.62
818;BME280;391;51.052;6.954;2023-04-05T03:13:43;101591.00;;;5.60;59.69
818;BME280;391;51.052;6.954;2023-04-05T03:15:56;101567.91;;;5.36;59.64
818;BME280;391;51.052;6.954;2023-04-05T03:18:03;101595.50;;;5.50;59.51
818;BME280;391;51.052;6.954;2023-04-05T03:20:07;101604.84;;;5.48;60.23
818;BME280;391;51.052;6.954;2023-04-05T03:22:12;101604.56;;;5.43;59.93
818;BME280;391;51.052;6.954;2023-04-05T03:24:15;101596.59;;;5.40;60.15
818;BME280;391;51.052;6.954;2023-04-05T03:26:20;101576.66;;;5.24;60.07
818;BME280;391;51.052;6.954;2023-04-05T03:28:27;101606.56;;;5.34;59.90
818;BME280;391;51.052;6.954;2023-04-05T03:30:36;101595.94;;;5.29;60.54
818;BME280;391;51.052;6.954;2023-04-05T03:32:50;101598.94;;;5.36;60.28
818;BME280;391;51.052;6.954;2023-04-05T03:35:09;101596.22;;;5.34;60.63
818;BME280;391;51.052;6.954;2023-04-05T03:37:19;101602.69;;;5.27;60.42
818;BME280;391;51.052;6.954;2023-04-05T03:39:32;101601.59;;;5.24;60.75
818;BME280;391;51.052;6.954;2023-04-05T03:41:37;101599.31;;;5.28;60.35
818;BME280;391;51.052;6.954;2023-04-05T03:43:43;101597.72;;;5.30;60.52
818;BME280;391;51.052;6.954;2023-04-05T03:45:46;101593.97;;;5.25;60.92
818;BME280;391;51.052;6.954;2023-04-05T03:47:50;101593.84;;;5.24;60.36
818;BME280;391;51.052;6.954;2023-04-05T03:49:54;101593.66;;;5.21;60.07
818;BME280;391;51.052;6.954;2023-04-05T03:51:58;101555.81;;;4.95;61.08
818;BME280;391;51.052;6.954;2023-04-05T03:54:01;101583.94;;;5.04;60.61
818;BME280;391;51.052;6.954;2023-04-05T03:56:07;101584.84;;;4.91;60.49
818;BME280;391;51.052;6.954;2023-04-05T03:58:19;101581.84;;;4.85;61.41
818;BME280;391;51.052;6.954;2023-04-05T04:00:23;101586.81;;;4.82;61.47
818;BME280;391;51.052;6.954;2023-04-05T04:02:45;101585.44;;;4.87;62.23
818;BME280;391;51.052;6.954;2023-04-05T04:04:54;101584.03;;;4.92;60.99
818;BME280;391;51.052;6.954;2023-04-05T04:06:57;101581.38;;;4.91;61.33
818;BME280;391;51.052;6.954;2023-04-05T04:09:03;101578.88;;;4.92;61.32
818;BME280;391;51.052;6.954;2023-04-05T04:11:07;101580.47;;;4.90;61.67
818;BME280;391;51.052;6.954;2023-04-05T04:13:13;101571.63;;;4.87;61.54
818;BME280;391;51.052;6.954;2023-04-05T04:15:18;101583.75;;;4.88;61.28
818;BME280;391;51.052;6.954;2023-04-05T04:17:40;101584.41;;;4.85;61.11
818;BME280;391;51.052;6.954;2023-04-05T04:19:49;101590.41;;;4.84;62.13
818;BME280;391;51.052;6.954;2023-04-05T04:22:08;101583.56;;;4.85;61.59
818;BME280;391;51.052;6.954;2023-04-05T04:24:40;101581.38;;;4.91;60.99
818;BME280;391;51.052;6.954;2023-04-05T04:27:12;101543.59;;;4.66;61.46
818;BME280;391;51.052;6.954;2023-04-05T04:29:36;101589.31;;;4.94;61.81
818;BME280;391;51.052;6.954;2023-04-05T04:32:07;101576.97;;;4.90;61.44
818;BME280;391;51.052;6.954;2023-04-05T04:34:29;101585.44;;;4.87;61.26
818;BME280;391;51.052;6.954;2023-04-05T04:36:44;101579.69;;;4.91;60.85
818;BME280;391;51.052;6.954;2023-04-05T04:39:09;101589.13;;;4.91;60.92
818;BME280;391;51.052;6.954;2023-04-05T04:41:34;101582.66;;;4.84;61.15
818;BME280;391;51.052;6.954;2023-04-05T04:44:01;101587.13;;;4.87;61.17
818;BME280;391;51.052;6.954;2023-04-05T04:46:24;101586.34;;;4.88;61.48
818;BME280;391;51.052;6.954;2023-04-05T04:48:40;101585.72;;;4.92;60.37
818;BME280;391;51.052;6.954;2023-04-05T04:51:05;101515.59;;;4.46;60.36
818;BME280;391;51.052;6.954;2023-04-05T04:53:10;101561.88;;;4.69;60.61
818;BME280;391;51.052;6.954;2023-04-05T04:55:14;101591.50;;;4.88;60.88
818;BME280;391;51.052;6.954;2023-04-05T04:57:21;101587.25;;;4.88;60.34
818;BME280;391;51.052;6.954;2023-04-05T04:59:27;101589.19;;;4.92;59.87
818;BME280;391;51.052;6.954;2023-04-05T05:01:31;101588.81;;;4.86;59.79
818;BME280;391;51.052;6.954;2023-04-05T05:03:36;101590.41;;;4.84;60.45
818;BME280;391;51.052;6.954;2023-04-05T05:05:42;101588.22;;;4.77;60.15
818;BME280;391;51.052;6.954;2023-04-05T05:07:46;101592.28;;;4.73;59.64
818;BME280;391;51.052;6.954;2023-04-05T05:09:50;101594.88;;;4.73;59.98
818;BME280;391;51.052;6.954;2023-04-05T05:11:55;101588.91;;;4.74;61.16
818;BME280;391;51.052;6.954;2023-04-05T05:14:00;101602.72;;;4.75;61.01
818;BME280;391;51.052;6.954;2023-04-05T05:16:04;101592.28;;;4.73;60.55
818;BME280;391;51.052;6.954;2023-04-05T05:18:07;101586.00;;;4.70;60.95
818;BME280;391;51.052;6.954;2023-04-05T05:20:11;101593.69;;;4.68;60.88
818;BME280;391;51.052;6.954;2023-04-05T05:22:20;101613.81;;;4.61;60.76
818;BME280;391;51.052;6.954;2023-04-05T05:24:24;101596.31;;;4.57;60.87
818;BME280;391;51.052;6.954;2023-04-05T05:26:27;101591.78;;;4.53;61.17
818;BME280;391;51.052;6.954;2023-04-05T05:28:30;101592.44;;;4.50;61.18
818;BME280;391;51.052;6.954;2023-04-05T05:30:34;101597.53;;;4.49;60.82
818;BME280;391;51.052;6.954;2023-04-05T05:32:37;101551.00;;;4.22;61.02
818;BME280;391;51.052;6.954;2023-04-05T05:34:43;101593.72;;;4.44;60.96
818;BME280;391;51.052;6.954;2023-04-05T05:36:47;101587.00;;;4.46;60.85
818;BME280;391;51.052;6.954;2023-04-05T05:38:51;101595.66;;;4.46;61.94
818;BME280;391;51.052;6.954;2023-04-05T05:40:55;101598.88;;;4.44;61.25
818;BME280;391;51.052;6.954;2023-04-05T05:42:59;101600.28;;;4.39;61.23
818;BME280;391;51.052;6.954;2023-04-05T05:45:04;101594.00;;;4.35;61.85
818;BME280;391;51.052;6.954;2023-04-05T05:47:07;101599.59;;;4.41;61.78
818;BME280;391;51.052;6.954;2023-04-05T05:49:11;101588.28;;;4.39;61.21
818;BME280;391;51.052;6.954;2023-04-05T05:51:14;101599.94;;;4.59;61.04
818;BME280;391;51.052;6.954;2023-04-05T05:53:18;101602.72;;;4.62;61.19
818;BME280;391;51.052;6.954;2023-04-05T05:55:23;101595.53;;;4.58;62.04
818;BME280;391;51.052;6.954;2023-04-05T05:57:27;101597.03;;;4.54;62.05
818;BME280;391;51.052;6.954;2023-04-05T05:59:30;101598.81;;;4.55;61.51
818;BME280;391;51.052;6.954;2023-04-05T06:01:34;101597.63;;;4.63;61.70
818;BME280;391;51.052;6.954;2023-04-05T06:03:39;101601.13;;;4.64;61.90
818;BME280;391;51.052;6.954;2023-04-05T06:05:49;101602.34;;;4.69;61.29
818;BME280;391;51.052;6.954;2023-04-05T06:07:53;101597.16;;;4.69;61.14
818;BME280;391;51.052;6.954;2023-04-05T06:09:56;101600.94;;;4.74;61.64
818;BME280;391;51.052;6.954;2023-04-05T06:12:02;101564.38;;;4.55;61.17
818;BME280;391;51.052;6.954;2023-04-05T06:14:06;101605.59;;;4.79;61.71
818;BME280;391;51.052;6.954;2023-04-05T06:16:09;101602.50;;;4.85;61.53
818;BME280;391;51.052;6.954;2023-04-05T06:18:13;101527.81;;;4.49;61.36
818;BME280;391;51.052;6.954;2023-04-05T06:20:16;101601.22;;;4.92;61.85
818;BME280;391;51.052;6.954;2023-04-05T06:22:20;101592.81;;;4.94;61.60
818;BME280;391;51.052;6.954;2023-04-05T06:24:24;101595.19;;;4.91;60.92
818;BME280;391;51.052;6.954;2023-04-05T06:26:28;101590.88;;;4.92;61.36
818;BME280;391;51.052;6.954;2023-04-05T06:28:33;101583.13;;;4.92;60.86
818;BME280;391;51.052;6.954;2023-04-05T06:30:36;101591.69;;;5.04;60.50
818;BME280;391;51.052;6.954;2023-04-05T06:32:40;101588.69;;;5.11;60.05
818;BME280;391;51.052;6.954;2023-04-05T06:34:43;101593.47;;;5.59;66.61
818;BME280;391;51.052;6.954;2023-04-05T06:36:50;101589.34;;;6.46;69.44
818;BME280;391;51.052;6.954;2023-04-05T06:38:53;101595.72;;;6.96;67.00
818;BME280;391;51.052;6.954;2023-04-05T06:40:57;101591.56;;;6.54;63.21
818;BME280;391;51.052;6.954;2023-04-05T06:43:00;101594.03;;;6.09;62.43
818;BME280;391;51.052;6.954;2023-04-05T06:45:08;101586.09;;;5.65;59.28
818;BME280;391;51.052;6.954;2023-04-05T06:47:12;101583.56;;;5.52;60.25
818;BME280;391;51.052;6.954;2023-04-05T06:49:16;101478.31;;;4.82;59.58
818;BME280;391;51.052;6.954;2023-04-05T06:51:20;101598.97;;;5.50;58.01
818;BME280;391;51.052;6.954;2023-04-05T06:53:23;101598.94;;;5.36;57.20
818;BME280;391;51.052;6.954;2023-04-05T06:55:28;101591.66;;;5.30;58.20
818;BME280;391;51.052;6.954;2023-04-05T06:57:32;101601.06;;;5.43;57.58
818;BME280;391;51.052;6.954;2023-04-05T06:59:36;101594.63;;;5.36;56.99
818;BME280;391;51.052;6.954;2023-04-05T07:01:41;101601.50;;;5.36;56.90
818;BME280;391;51.052;6.954;2023-04-05T07:03:44;101439.25;;;4.50;56.49
818;BME280;391;51.052;6.954;2023-04-05T07:05:49;101603.19;;;5.35;55.97
818;BME280;391;51.052;6.954;2023-04-05T07:07:54;101603.22;;;5.22;55.15
818;BME280;391;51.052;6.954;2023-04-05T07:09:57;101602.13;;;5.18;54.99
818;BME280;391;51.052;6.954;2023-04-05T07:12:02;101599.66;;;5.20;54.81
818;BME280;391;51.052;6.954;2023-04-05T07:14:06;101599.00;;;5.24;55.41
818;BME280;391;51.052;6.954;2023-04-05T07:16:09;101594.84;;;5.26;55.04
818;BME280;391;51.052;6.954;2023-04-05T07:18:14;101597.94;;;5.20;54.86
818;BME280;391;51.052;6.954;2023-04-05T07:20:17;101601.22;;;5.18;55.06
818;BME280;391;51.052;6.954;2023-04-05T07:22:23;101592.88;;;5.22;55.27
818;BME280;391;51.052;6.954;2023-04-05T07:24:27;101591.88;;;5.20;55.59
818;BME280;391;51.052;6.954;2023-04-05T07:26:30;101593.44;;;5.31;55.21
818;BME280;391;51.052;6.954;2023-04-05T07:28:36;101587.16;;;5.41;55.64
818;BME280;391;51.052;6.954;2023-04-05T07:30:39;101582.56;;;5.50;55.47
818;BME280;391;51.052;6.954;2023-04-05T07:32:43;101592.69;;;5.60;54.52
818;BME280;391;51.052;6.954;2023-04-05T07:34:48;101589.19;;;5.59;54.45
818;BME280;391;51.052;6.954;2023-04-05T07:36:51;101550.47;;;5.33;54.46
818;BME280;391;51.052;6.954;2023-04-05T07:38:55;101578.59;;;5.55;53.62
818;BME280;391;51.052;6.954;2023-04-05T07:40:59;101577.38;;;5.50;54.16
818;BME280;391;51.052;6.954;2023-04-05T07:43:02;101588.22;;;5.57;53.29
818;BME280;391;51.052;6.954;2023-04-05T07:45:07;101588.19;;;5.70;53.27
818;BME280;391;51.052;6.954;2023-04-05T07:47:11;101579.72;;;5.73;53.98
818;BME280;391;51.052;6.954;2023-04-05T07:49:14;101595.22;;;5.86;52.83
818;BME280;391;51.052;6.954;2023-04-05T07:51:19;101581.97;;;5.81;53.00
818;BME280;391;51.052;6.954;2023-04-05T07:53:22;101585.25;;;5.92;52.57
818;BME280;391;51.052;6.954;2023-04-05T07:55:26;101586.88;;;6.05;52.52
818;BME280;391;51.052;6.954;2023-04-05T07:57:30;101579.84;;;6.02;52.22
818;BME280;391;51.052;6.954;2023-04-05T07:59:33;101582.78;;;6.08;52.30
818;BME280;391;51.052;6.954;2023-04-05T08:01:37;101551.25;;;6.01;52.29
818;BME280;391;51.052;6.954;2023-04-05T08:03:40;101592.44;;;6.25;52.29
818;BME280;391;51.052;6.954;2023-04-05T08:05:45;101578.69;;;6.26;52.17
818;BME280;391;51.052;6.954;2023-04-05T08:07:49;101588.75;;;6.07;51.43
818;BME280;391;51.052;6.954;2023-04-05T08:09:53;101588.56;;;6.04;52.28
818;BME280;391;51.052;6.954;2023-04-05T08:11:59;101589.94;;;6.27;52.57
818;BME280;391;51.052;6.954;2023-04-05T08:14:04;101593.72;;;6.47;52.42
818;BME280;391;51.052;6.954;2023-04-05T08:16:08;101574.88;;;6.49;51.37
818;BME280;391;51.052;6.954;2023-04-05T08:18:11;101582.75;;;6.51;51.07
818;BME280;391;51.052;6.954;2023-04-05T08:20:15;101580.47;;;6.42;50.81
818;BME280;391;51.052;6.954;2023-04-05T08:22:19;101576.28;;;6.29;51.39
818;BME280;391;51.052;6.954;2023-04-05T08:24:23;101580.84;;;6.63;50.98
818;BME280;391;51.052;6.954;2023-04-05T08:26:27;101585.84;;;6.74;50.83
818;BME280;391;51.052;6.954;2023-04-05T08:28:30;101588.72;;;6.79;50.58
818;BME280;391;51.052;6.954;2023-04-05T08:30:34;101535.81;;;6.61;50.23
818;BME280;391;51.052;6.954;2023-04-05T08:32:37;101596.56;;;6.95;49.98
818;BME280;391;51.052;6.954;2023-04-05T08:34:41;101589.06;;;7.16;50.25
818;BME280;391;51.052;6.954;2023-04-05T08:36:44;101594.78;;;7.25;49.14
818;BME280;391;51.052;6.954;2023-04-05T08:38:50;101592.50;;;7.31;49.44
818;BME280;391;51.052;6.954;2023-04-05T08:40:54;101582.50;;;7.37;49.10
818;BME280;391;51.052;6.954;2023-04-05T08:43:04;101590.47;;;7.40;48.78
818;BME280;391;51.052;6.954;2023-04-05T08:45:13;101586.06;;;7.39;48.60
818;BME280;391;51.052;6.954;2023-04-05T08:47:18;101533.25;;;7.22;48.54
818;BME280;391;51.052;6.954;2023-04-05T08:49:22;101583.72;;;7.60;48.69
818;BME280;391;51.052;6.954;2023-04-05T08:51:26;101472.63;;;7.04;48.56
818;BME280;391;51.052;6.954;2023-04-05T08:53:29;101589.44;;;7.69;48.18
818;BME280;391;51.052;6.954;2023-04-05T08:55:33;101592.09;;;7.70;48.03
818;BME280;391;51.052;6.954;2023-04-05T08:57:41;101586.81;;;7.85;47.79
818;BME280;391;51.052;6.954;2023-04-05T08:59:46;101587.56;;;7.82;46.96
818;BME280;391;51.052;6.954;2023-04-05T09:01:51;101568.84;;;7.72;47.00
818;BME280;391;51.052;6.954;2023-04-05T09:03:55;101586.28;;;7.90;46.67
818;BME280;391;51.052;6.954;2023-04-05T09:05:59;101579.19;;;8.04;46.65
818;BME280;391;51.052;6.954;2023-04-05T09:08:05;101590.00;;;8.12;46.45
818;BME280;391;51.052;6.954;2023-04-05T09:10:12;101591.06;;;8.15;46.29
818;BME280;391;51.052;6.954;2023-04-05T09:12:15;101548.88;;;8.03;45.94
818;BME280;391;51.052;6.954;2023-04-05T09:14:20;101582.63;;;8.35;46.05
818;BME280;391;51.052;6.954;2023-04-05T09:16:24;101579.75;;;8.15;45.75
818;BME280;391;51.052;6.954;2023-04-05T09:18:29;101576.22;;;8.13;45.73
818;BME280;391;51.052;6.954;2023-04-05T09:20:33;101577.16;;;8.15;45.59
818;BME280;391;51.052;6.954;2023-04-05T09:22:42;101577.56;;;8.22;45.67
818;BME280;391;51.052;6.954;2023-04-05T09:24:46;101579.94;;;8.34;45.71
818;BME280;391;51.052;6.954;2023-04-05T09:27:02;101571.44;;;8.54;45.48
818;BME280;391;51.052;6.954;2023-04-05T09:29:06;101548.69;;;8.32;44.58
818;BME280;391;51.052;6.954;2023-04-05T09:31:28;101574.09;;;8.56;44.37
818;BME280;391;51.052;6.954;2023-04-05T09:33:33;101576.69;;;8.22;44.15
818;BME280;391;51.052;6.954;2023-04-05T09:35:36;101576.75;;;8.39;44.56
818;BME280;391;51.052;6.954;2023-04-05T09:37:49;101539.72;;;8.43;44.14
818;BME280;391;51.052;6.954;2023-04-05T09:40:01;101572.75;;;8.80;43.76
818;BME280;391;51.052;6.954;2023-04-05T09:42:06;101567.31;;;8.93;43.81
818;BME280;391;51.052;6.954;2023-04-05T09:44:12;101567.91;;;9.05;43.41
818;BME280;391;51.052;6.954;2023-04-05T09:46:28;101563.38;;;9.19;43.09
818;BME280;391;51.052;6.954;2023-04-05T09:48:44;101562.63;;;9.21;43.26
818;BME280;391;51.052;6.954;2023-04-05T09:50:48;101559.34;;;9.25;42.45
818;BME280;391;51.052;6.954;2023-04-05T09:53:04;101558.28;;;9.39;41.80
818;BME280;391;51.052;6.954;2023-04-05T09:55:09;101562.94;;;9.46;42.53
818;BME280;391;51.052;6.954;2023-04-05T09:57:14;101556.19;;;9.32;41.94
818;BME280;391;51.052;6.954;2023-04-05T09:59:18;101556.41;;;9.37;42.78
818;BME280;391;51.052;6.954;2023-04-05T10:01:27;101560.28;;;9.64;42.70
818;BME280;391;51.052;6.954;2023-04-05T10:03:30;101554.38;;;9.49;42.10
818;BME280;391;51.052;6.954;2023-04-05T10:05:34;101558.25;;;9.57;42.21
818;BME280;391;51.052;6.954;2023-04-05T10:07:38;101561.19;;;9.65;41.89
818;BME280;391;51.052;6.954;2023-04-05T10:09:43;101564.13;;;9.72;42.13
818;BME280;391;51.052;6.954;2023-04-05T10:11:47;101532.63;;;9.66;41.58
818;BME280;391;51.052;6.954;2023-04-05T10:13:50;101550.91;;;9.87;40.82
818;BME280;391;51.052;6.954;2023-04-05T10:15:55;101555.91;;;10.01;40.58
818;BME280;391;51.052;6.954;2023-04-05T10:18:08;101550.72;;;10.21;40.24
818;BME280;391;51.052;6.954;2023-04-05T10:20:13;101559.41;;;10.21;39.24
818;BME280;391;51.052;6.954;2023-04-05T10:22:22;101556.88;;;10.43;39.13
818;BME280;391;51.052;6.954;2023-04-05T10:24:33;101552.91;;;10.51;39.38
818;BME280;391;51.052;6.954;2023-04-05T10:26:44;101556.53;;;10.55;39.00
818;BME280;391;51.052;6.954;2023-04-05T10:28:52;101549.34;;;10.70;38.88
818;BME280;391;51.052;6.954;2023-04-05T10:31:09;101549.72;;;10.79;37.90
818;BME280;391;51.052;6.954;2023-04-05T10:33:19;101554.91;;;10.17;36.42
818;BME280;391;51.052;6.954;2023-04-05T10:35:27;101557.22;;;10.51;37.19
818;BME280;391;51.052;6.954;2023-04-05T10:37:40;101542.00;;;10.82;37.27
818;BME280;391;51.052;6.954;2023-04-05T10:39:45;101534.50;;;10.90;36.61
818;BME280;391;51.052;6.954;2023-04-05T10:41:52;101537.91;;;11.09;36.96
818;BME280;391;51.052;6.954;2023-04-05T10:43:56;101540.16;;;11.23;36.49
818;BME280;391;51.052;6.954;2023-04-05T10:46:02;101550.19;;;11.34;36.23
818;BME280;391;51.052;6.954;2023-04-05T10:48:14;101544.72;;;11.28;35.37
818;BME280;391;51.052;6.954;2023-04-05T10:50:21;101539.94;;;11.17;35.75
818;BME280;391;51.052;6.954;2023-04-05T10:52:25;101535.66;;;11.41;35.92
818;BME280;391;51.052;6.954;2023-04-05T10:54:32;101504.97;;;11.35;35.26
818;BME280;391;51.052;6.954;2023-04-05T10:56:36;101533.56;;;11.77;35.14
818;BME280;391;51.052;6.954;2023-04-05T10:58:40;101531.41;;;11.90;35.14
818;BME280;391;51.052;6.954;2023-04-05T11:00:46;101514.25;;;11.97;35.06
818;BME280;391;51.052;6.954;2023-04-05T11:02:53;101499.72;;;11.57;34.06
818;BME280;391;51.052;6.954;2023-04-05T11:05:02;101519.97;;;11.41;33.65
818;BME280;391;51.052;6.954;2023-04-05T11:07:14;101520.28;;;11.71;34.05
818;BME280;391;51.052;6.954;2023-04-05T11:09:19;101517.97;;;12.03;33.66
818;BME280;391;51.052;6.954;2023-04-05T11:11:24;101531.31;;;12.11;33.25
818;BME280;391;51.052;6.954;2023-04-05T11:13:46;101529.19;;;12.25;33.42
818;BME280;391;51.052;6.954;2023-04-05T11:16:07;101440.13;;;11.95;33.48
818;BME280;391;51.052;6.954;2023-04-05T11:18:19;101467.88;;;12.16;32.75
818;BME280;391;51.052;6.954;2023-04-05T11:20:22;101503.97;;;12.52;33.10
818;BME280;391;51.052;6.954;2023-04-05T11:22:28;101520.84;;;12.61;32.54
818;BME280;391;51.052;6.954;2023-04-05T11:24:49;101506.53;;;12.50;32.53
818;BME280;391;51.052;6.954;2023-04-05T11:26:55;101499.22;;;12.67;32.76
818;BME280;391;51.052;6.954;2023-04-05T11:28:58;101472.44;;;12.47;32.86
818;BME280;391;51.052;6.954;2023-04-05T11:31:11;101506.13;;;12.65;32.57
818;BME280;391;51.052;6.954;2023-04-05T11:33:35;101509.88;;;13.00;32.91
818;BME280;391;51.052;6.954;2023-04-05T11:35:38;101502.72;;;13.21;32.02
818;BME280;391;51.052;6.954;2023-04-05T11:38:04;101469.19;;;13.09;32.03
818;BME280;391;51.052;6.954;2023-04-05T11:40:23;101498.63;;;13.31;30.98
818;BME280;391;51.052;6.954;2023-04-05T11:42:27;101500.81;;;13.15;31.52
818;BME280;391;51.052;6.954;2023-04-05T11:44:40;101499.25;;;13.22;31.88
818;BME280;391;51.052;6.954;2023-04-05T11:46:45;101503.59;;;13.21;31.66